sensor_id;sensor_type;location;lat;lon;timestamp;pressure;altitude;pressure_sealevel;temperature;humidity
36234;BME280;43467;50.890;5.982;2023-02-21T00:02:11;100743.53;;;8.62;94.62
36234;BME280;43467;50.890;5.982;2023-02-21T00:04:56;100747.03;;;8.63;94.54
36234;BME280;43467;50.890;5.982;2023-02-21T00:07:40;100749.44;;;8.70;94.00
36234;BME280;43467;50.890;5.982;2023-02-21T00:10:24;100742.78;;;8.57;94.40
36234;BME280;43467;50.890;5.982;2023-02-21T00:13:08;100743.13;;;8.47;94.85
36234;BME280;43467;50.890;5.982;2023-02-21T00:15:53;100737.22;;;8.37;95.49
36234;BME280;43467;50.890;5.982;2023-02-21T00:18:37;100724.69;;;8.45;95.35
36234;BME280;43467;50.890;5.982;2023-02-21T00:21:22;100728.06;;;8.50;95.02
36234;BME280;43467;50.890;5.982;2023-02-21T00:24:07;100734.44;;;8.43;95.81
36234;BME280;43467;50.890;5.982;2023-02-21T00:26:55;100748.66;;;8.37;96.00
36234;BME280;43467;50.890;5.982;2023-02-21T00:29:39;100724.94;;;8.36;95.71
36234;BME280;43467;50.890;5.982;2023-02-21T00:32:23;100742.34;;;8.43;95.34
36234;BME280;43467;50.890;5.982;2023-02-21T00:35:07;100744.03;;;8.44;95.50
36234;BME280;43467;50.890;5.982;2023-02-21T00:37:52;100747.91;;;8.32;96.03
36234;BME280;43467;50.890;5.982;2023-02-21T00:40:36;100733.69;;;8.38;95.82
36234;BME280;43467;50.890;5.982;2023-02-21T00:43:32;100729.44;;;8.32;96.04
36234;BME280;43467;50.890;5.982;2023-02-21T00:46:16;100746.28;;;8.27;96.65
36234;BME280;43467;50.890;5.982;2023-02-21T00:49:01;100738.22;;;8.33;96.48
36234;BME280;43467;50.890;5.982;2023-02-21T00:51:45;100729.31;;;8.37;96.24
36234;BME280;43467;50.890;5.982;2023-02-21T00:54:29;100726.31;;;8.49;95.60
36234;BME280;43467;50.890;5.982;2023-02-21T00:57:13;100727.16;;;8.51;94.99
36234;BME280;43467;50.890;5.982;2023-02-21T00:59:57;100730.59;;;8.53;94.90
36234;BME280;43467;50.890;5.982;2023-02-21T01:02:41;100731.81;;;8.42;95.37
36234;BME280;43467;50.890;5.982;2023-02-21T01:05:26;100720.38;;;8.43;95.33
36234;BME280;43467;50.890;5.982;2023-02-21T01:08:10;100708.41;;;8.31;95.98
36234;BME280;43467;50.890;5.982;2023-02-21T01:10:55;100705.66;;;8.34;95.98
36234;BME280;43467;50.890;5.982;2023-02-21T01:13:38;100715.38;;;8.32;96.42
36234;BME280;43467;50.890;5.982;2023-02-21T01:16:23;100722.25;;;8.37;96.22
36234;BME280;43467;50.890;5.982;2023-02-21T01:19:07;100718.19;;;8.26;96.57
36234;BME280;43467;50.890;5.982;2023-02-21T01:21:51;100716.00;;;8.42;95.86
36234;BME280;43467;50.890;5.982;2023-02-21T01:24:34;100720.16;;;8.49;95.60
36234;BME280;43467;50.890;5.982;2023-02-21T01:27:19;100725.78;;;8.38;95.73
36234;BME280;43467;50.890;5.982;2023-02-21T01:30:03;100733.69;;;8.38;96.18
36234;BME280;43467;50.890;5.982;2023-02-21T01:32:47;100719.63;;;8.37;96.06
36234;BME280;43467;50.890;5.982;2023-02-21T01:35:31;100723.94;;;8.40;96.63
36234;BME280;43467;50.890;5.982;2023-02-21T01:38:15;100715.97;;;8.43;95.92
36234;BME280;43467;50.890;5.982;2023-02-21T01:40:59;100714.22;;;8.42;96.01
36234;BME280;43467;50.890;5.982;2023-02-21T01:44:04;100719.25;;;8.50;95.78
36234;BME280;43467;50.890;5.982;2023-02-21T01:46:49;100720.41;;;8.41;96.04
36234;BME280;43467;50.890;5.982;2023-02-21T01:49:36;100714.66;;;8.56;95.30
36234;BME280;43467;50.890;5.982;2023-02-21T01:52:21;100713.66;;;8.60;94.82
36234;BME280;43467;50.890;5.982;2023-02-21T01:55:06;100712.19;;;8.52;94.96
36234;BME280;43467;50.890;5.982;2023-02-21T01:57:51;100710.34;;;8.54;94.72
36234;BME280;43467;50.890;5.982;2023-02-21T02:00:37;100711.38;;;8.48;95.37
36234;BME280;43467;50.890;5.982;2023-02-21T02:03:22;100707.84;;;8.49;95.48
36234;BME280;43467;50.890;5.982;2023-02-21T02:06:08;100705.97;;;8.53;95.03
36234;BME280;43467;50.890;5.982;2023-02-21T02:08:52;100701.75;;;8.47;95.75
36234;BME280;43467;50.890;5.982;2023-02-21T02:29:34;100705.28;;;8.15;97.86
36234;BME280;43467;50.890;5.982;2023-02-21T02:37:30;100700.63;;;8.23;97.67
36234;BME280;43467;50.890;5.982;2023-02-21T02:40:15;100702.28;;;8.29;97.76
36234;BME280;43467;50.890;5.982;2023-02-21T02:45:48;100693.38;;;8.33;97.21
36234;BME280;43467;50.890;5.982;2023-02-21T02:48:22;100685.69;;;8.24;97.40
36234;BME280;43467;50.890;5.982;2023-02-21T02:50:50;100678.59;;;8.26;97.44
36234;BME280;43467;50.890;5.982;2023-02-21T02:53:19;100676.22;;;8.17;98.19
36234;BME280;43467;50.890;5.982;2023-02-21T02:55:56;100678.78;;;8.20;98.23
36234;BME280;43467;50.890;5.982;2023-02-21T02:58:24;100672.63;;;8.19;97.87
36234;BME280;43467;50.890;5.982;2023-02-21T03:01:13;100678.13;;;8.12;98.75
36234;BME280;43467;50.890;5.982;2023-02-21T03:07:41;100678.75;;;8.21;98.34
36234;BME280;43467;50.890;5.982;2023-02-21T03:15:12;100646.69;;;8.04;98.42
36234;BME280;43467;50.890;5.982;2023-02-21T03:17:42;100657.78;;;8.15;98.83
36234;BME280;43467;50.890;5.982;2023-02-21T03:20:11;100662.31;;;8.12;98.90
36234;BME280;43467;50.890;5.982;2023-02-21T03:22:39;100660.63;;;8.09;98.96
36234;BME280;43467;50.890;5.982;2023-02-21T03:25:06;100657.72;;;8.18;98.74
36234;BME280;43467;50.890;5.982;2023-02-21T03:27:32;100656.75;;;8.21;98.57
36234;BME280;43467;50.890;5.982;2023-02-21T03:30:02;100661.00;;;8.26;98.17
36234;BME280;43467;50.890;5.982;2023-02-21T03:32:39;100659.25;;;8.27;98.33
36234;BME280;43467;50.890;5.982;2023-02-21T03:35:07;100652.53;;;8.15;98.64
36234;BME280;43467;50.890;5.982;2023-02-21T03:38:02;100635.03;;;8.13;98.11
36234;BME280;43467;50.890;5.982;2023-02-21T03:40:30;100658.28;;;8.31;97.90
36234;BME280;43467;50.890;5.982;2023-02-21T03:42:57;100647.75;;;8.29;97.87
36234;BME280;43467;50.890;5.982;2023-02-21T03:45:23;100641.34;;;8.38;97.92
36234;BME280;43467;50.890;5.982;2023-02-21T03:47:49;100642.84;;;8.16;98.40
36234;BME280;43467;50.890;5.982;2023-02-21T03:50:14;100644.69;;;8.14;99.13
36234;BME280;43467;50.890;5.982;2023-02-21T03:52:40;100640.16;;;8.17;99.07
36234;BME280;43467;50.890;5.982;2023-02-21T03:55:07;100634.16;;;8.12;99.25
36234;BME280;43467;50.890;5.982;2023-02-21T03:57:33;100638.88;;;8.01;100.00
36234;BME280;43467;50.890;5.982;2023-02-21T03:59:58;100634.94;;;7.86;100.00
36234;BME280;43467;50.890;5.982;2023-02-21T04:02:24;100642.50;;;7.99;100.00
36234;BME280;43467;50.890;5.982;2023-02-21T04:04:50;100639.88;;;7.97;100.00
36234;BME280;43467;50.890;5.982;2023-02-21T04:07:17;100642.41;;;8.02;99.70
36234;BME280;43467;50.890;5.982;2023-02-21T04:09:43;100638.78;;;8.04;99.71
36234;BME280;43467;50.890;5.982;2023-02-21T04:12:09;100630.97;;;8.01;99.81
36234;BME280;43467;50.890;5.982;2023-02-21T04:14:35;100636.13;;;8.06;99.65
36234;BME280;43467;50.890;5.982;2023-02-21T04:17:00;100626.81;;;7.94;100.00
36234;BME280;43467;50.890;5.982;2023-02-21T04:19:26;100633.53;;;8.04;100.00
36234;BME280;43467;50.890;5.982;2023-02-21T04:21:51;100632.75;;;8.01;99.94
36234;BME280;43467;50.890;5.982;2023-02-21T04:24:16;100627.34;;;8.05;99.83
36234;BME280;43467;50.890;5.982;2023-02-21T04:26:42;100629.97;;;8.05;99.22
36234;BME280;43467;50.890;5.982;2023-02-21T04:29:07;100623.75;;;8.08;98.86
36234;BME280;43467;50.890;5.982;2023-02-21T04:31:33;100639.41;;;8.14;98.74
36234;BME280;43467;50.890;5.982;2023-02-21T04:33:59;100626.34;;;8.09;98.87
36234;BME280;43467;50.890;5.982;2023-02-21T04:36:25;100633.34;;;8.10;98.29
36234;BME280;43467;50.890;5.982;2023-02-21T04:38:51;100617.03;;;7.98;98.78
36234;BME280;43467;50.890;5.982;2023-02-21T04:41:16;100612.84;;;7.90;99.47
36234;BME280;43467;50.890;5.982;2023-02-21T04:43:43;100636.72;;;7.84;100.00
36234;BME280;43467;50.890;5.982;2023-02-21T04:46:09;100630.59;;;7.84;100.00
36234;BME280;43467;50.890;5.982;2023-02-21T04:48:35;100624.53;;;7.80;100.00
36234;BME280;43467;50.890;5.982;2023-02-21T04:51:00;100625.41;;;7.81;100.00
36234;BME280;43467;50.890;5.982;2023-02-21T04:53:26;100616.59;;;7.82;100.00
36234;BME280;43467;50.890;5.982;2023-02-21T04:55:51;100622.69;;;7.84;100.00
36234;BME280;43467;50.890;5.982;2023-02-21T04:58:16;100615.47;;;7.90;100.00
36234;BME280;43467;50.890;5.982;2023-02-21T05:00:42;100621.31;;;8.02;100.00
36234;BME280;43467;50.890;5.982;2023-02-21T05:03:07;100620.47;;;8.00;100.00
36234;BME280;43467;50.890;5.982;2023-02-21T05:05:32;100623.16;;;7.98;100.00
36234;BME280;43467;50.890;5.982;2023-02-21T05:07:58;100620.59;;;7.95;100.00
36234;BME280;43467;50.890;5.982;2023-02-21T05:10:23;100616.47;;;7.86;100.00
36234;BME280;43467;50.890;5.982;2023-02-21T05:12:48;100616.41;;;7.88;100.00
36234;BME280;43467;50.890;5.982;2023-02-21T05:15:14;100622.94;;;7.75;100.00
36234;BME280;43467;50.890;5.982;2023-02-21T05:17:40;100623.22;;;7.66;100.00
36234;BME280;43467;50.890;5.982;2023-02-21T05:20:05;100616.88;;;7.71;100.00
36234;BME280;43467;50.890;5.982;2023-02-21T05:22:38;100626.00;;;7.60;100.00
36234;BME280;43467;50.890;5.982;2023-02-21T05:25:16;100624.91;;;7.67;100.00
36234;BME280;43467;50.890;5.982;2023-02-21T05:27:41;100613.34;;;7.72;100.00
36234;BME280;43467;50.890;5.982;2023-02-21T05:30:08;100615.72;;;7.81;100.00
36234;BME280;43467;50.890;5.982;2023-02-21T05:32:33;100611.53;;;7.74;100.00
36234;BME280;43467;50.890;5.982;2023-02-21T05:34:59;100614.34;;;7.68;100.00
36234;BME280;43467;50.890;5.982;2023-02-21T05:37:24;100608.81;;;7.77;100.00
36234;BME280;43467;50.890;5.982;2023-02-21T05:39:49;100617.41;;;7.84;100.00
36234;BME280;43467;50.890;5.982;2023-02-21T05:42:15;100620.22;;;7.78;100.00
36234;BME280;43467;50.890;5.982;2023-02-21T05:44:46;100628.06;;;7.79;100.00
36234;BME280;43467;50.890;5.982;2023-02-21T05:47:15;100627.28;;;7.77;100.00
36234;BME280;43467;50.890;5.982;2023-02-21T05:49:41;100633.47;;;7.75;100.00
36234;BME280;43467;50.890;5.982;2023-02-21T05:52:10;100628.41;;;7.67;100.00
36234;BME280;43467;50.890;5.982;2023-02-21T05:54:35;100632.75;;;7.70;100.00
36234;BME280;43467;50.890;5.982;2023-02-21T05:57:01;100627.16;;;7.82;100.00
36234;BME280;43467;50.890;5.982;2023-02-21T05:59:27;100625.84;;;7.66;100.00
36234;BME280;43467;50.890;5.982;2023-02-21T06:01:52;100614.59;;;7.59;100.00
36234;BME280;43467;50.890;5.982;2023-02-21T06:04:18;100635.97;;;7.81;100.00
36234;BME280;43467;50.890;5.982;2023-02-21T06:06:44;100628.84;;;7.83;100.00
36234;BME280;43467;50.890;5.982;2023-02-21T06:09:10;100629.00;;;7.78;100.00
36234;BME280;43467;50.890;5.982;2023-02-21T06:11:37;100630.94;;;7.72;100.00
36234;BME280;43467;50.890;5.982;2023-02-21T06:14:05;100628.31;;;7.70;100.00
36234;BME280;43467;50.890;5.982;2023-02-21T06:16:33;100637.06;;;7.72;100.00
36234;BME280;43467;50.890;5.982;2023-02-21T06:18:58;100634.19;;;7.81;100.00
36234;BME280;43467;50.890;5.982;2023-02-21T06:21:24;100626.38;;;7.78;100.00
36234;BME280;43467;50.890;5.982;2023-02-21T06:23:49;100633.69;;;7.67;100.00
36234;BME280;43467;50.890;5.982;2023-02-21T06:26:15;100636.19;;;7.72;100.00
36234;BME280;43467;50.890;5.982;2023-02-21T06:28:41;100635.25;;;7.74;100.00
36234;BME280;43467;50.890;5.982;2023-02-21T06:31:08;100637.06;;;7.72;100.00
36234;BME280;43467;50.890;5.982;2023-02-21T06:33:33;100636.91;;;7.78;100.00
36234;BME280;43467;50.890;5.982;2023-02-21T06:36:05;100635.31;;;7.73;100.00
36234;BME280;43467;50.890;5.982;2023-02-21T06:38:32;100633.00;;;7.61;100.00
36234;BME280;43467;50.890;5.982;2023-02-21T06:40:58;100638.97;;;7.67;100.00
36234;BME280;43467;50.890;5.982;2023-02-21T06:43:23;100635.34;;;7.71;100.00
36234;BME280;43467;50.890;5.982;2023-02-21T06:45:49;100634.41;;;7.74;100.00
36234;BME280;43467;50.890;5.982;2023-02-21T06:48:15;100623.72;;;7.78;100.00
36234;BME280;43467;50.890;5.982;2023-02-21T06:50:41;100628.78;;;7.86;99.91
36234;BME280;43467;50.890;5.982;2023-02-21T06:53:06;100640.97;;;7.90;99.61
36234;BME280;43467;50.890;5.982;2023-02-21T06:55:31;100638.28;;;7.91;99.89
36234;BME280;43467;50.890;5.982;2023-02-21T06:57:57;100643.47;;;7.94;99.13
36234;BME280;43467;50.890;5.982;2023-02-21T07:00:23;100642.69;;;7.91;98.89
36234;BME280;43467;50.890;5.982;2023-02-21T07:02:51;100636.56;;;7.90;99.47
36234;BME280;43467;50.890;5.982;2023-02-21T07:05:17;100644.41;;;7.92;98.78
36234;BME280;43467;50.890;5.982;2023-02-21T07:07:43;100644.50;;;7.89;99.16
36234;BME280;43467;50.890;5.982;2023-02-21T07:10:08;100644.41;;;7.92;98.95
36234;BME280;43467;50.890;5.982;2023-02-21T07:12:34;100645.97;;;7.99;98.28
36234;BME280;43467;50.890;5.982;2023-02-21T07:14:59;100638.34;;;7.90;98.50
36234;BME280;43467;50.890;5.982;2023-02-21T07:17:24;100632.59;;;7.74;99.00
36234;BME280;43467;50.890;5.982;2023-02-21T07:19:50;100637.81;;;7.77;99.59
36234;BME280;43467;50.890;5.982;2023-02-21T07:22:15;100639.69;;;7.74;98.97
36234;BME280;43467;50.890;5.982;2023-02-21T07:24:41;100641.34;;;7.76;99.30
36234;BME280;43467;50.890;5.982;2023-02-21T07:27:07;100637.97;;;7.71;99.49
36234;BME280;43467;50.890;5.982;2023-02-21T07:29:32;100646.66;;;7.75;98.88
36234;BME280;43467;50.890;5.982;2023-02-21T07:31:57;100648.28;;;7.79;98.68
36234;BME280;43467;50.890;5.982;2023-02-21T07:34:23;100641.13;;;7.84;98.69
36234;BME280;43467;50.890;5.982;2023-02-21T07:36:49;100647.28;;;7.84;98.15
36234;BME280;43467;50.890;5.982;2023-02-21T07:39:14;100650.31;;;8.02;97.64
36234;BME280;43467;50.890;5.982;2023-02-21T07:41:40;100651.44;;;7.93;97.29
36234;BME280;43467;50.890;5.982;2023-02-21T07:44:05;100647.53;;;7.75;97.85
36234;BME280;43467;50.890;5.982;2023-02-21T07:46:32;100654.75;;;7.69;97.50
36234;BME280;43467;50.890;5.982;2023-02-21T07:48:59;100653.22;;;7.60;98.18
36234;BME280;43467;50.890;5.982;2023-02-21T07:51:29;100654.78;;;7.67;97.99
36234;BME280;43467;50.890;5.982;2023-02-21T07:53:55;100656.63;;;7.64;97.86
36234;BME280;43467;50.890;5.982;2023-02-21T07:56:21;100656.50;;;7.68;97.96
36234;BME280;43467;50.890;5.982;2023-02-21T07:58:46;100659.81;;;7.76;97.51
36234;BME280;43467;50.890;5.982;2023-02-21T08:01:12;100652.88;;;7.72;96.77
36234;BME280;43467;50.890;5.982;2023-02-21T08:03:37;100658.06;;;7.75;96.56
36234;BME280;43467;50.890;5.982;2023-02-21T08:06:04;100654.44;;;7.79;96.34
36234;BME280;43467;50.890;5.982;2023-02-21T08:08:30;100661.19;;;7.89;96.14
36234;BME280;43467;50.890;5.982;2023-02-21T08:10:55;100654.19;;;7.88;96.11
36234;BME280;43467;50.890;5.982;2023-02-21T08:13:21;100652.28;;;7.93;96.32
36234;BME280;43467;50.890;5.982;2023-02-21T08:15:46;100655.84;;;7.92;95.39
36234;BME280;43467;50.890;5.982;2023-02-21T08:18:20;100650.47;;;7.95;96.33
36234;BME280;43467;50.890;5.982;2023-02-21T08:20:49;100643.84;;;7.82;95.96
36234;BME280;43467;50.890;5.982;2023-02-21T08:23:16;100647.69;;;7.69;96.09
36234;BME280;43467;50.890;5.982;2023-02-21T08:25:43;100660.56;;;7.80;96.63
36234;BME280;43467;50.890;5.982;2023-02-21T08:28:08;100650.09;;;7.78;96.18
36234;BME280;43467;50.890;5.982;2023-02-21T08:30:33;100651.81;;;7.79;95.73
36234;BME280;43467;50.890;5.982;2023-02-21T08:32:59;100648.00;;;7.89;95.47
36234;BME280;43467;50.890;5.982;2023-02-21T08:35:24;100641.91;;;7.87;95.82
36234;BME280;43467;50.890;5.982;2023-02-21T08:37:50;100652.16;;;7.98;95.10
36234;BME280;43467;50.890;5.982;2023-02-21T08:40:18;100650.78;;;7.85;94.82
36234;BME280;43467;50.890;5.982;2023-02-21T08:42:48;100648.41;;;7.74;95.34
36234;BME280;43467;50.890;5.982;2023-02-21T08:45:18;100649.28;;;7.75;95.79
36234;BME280;43467;50.890;5.982;2023-02-21T08:47:44;100641.69;;;7.64;96.07
36234;BME280;43467;50.890;5.982;2023-02-21T08:50:10;100650.50;;;7.63;96.42
36234;BME280;43467;50.890;5.982;2023-02-21T08:52:36;100638.88;;;7.70;96.29
36234;BME280;43467;50.890;5.982;2023-02-21T08:55:01;100636.50;;;7.61;96.97
36234;BME280;43467;50.890;5.982;2023-02-21T08:57:27;100633.66;;;7.69;96.73
36234;BME280;43467;50.890;5.982;2023-02-21T08:59:53;100634.84;;;7.89;96.32
36234;BME280;43467;50.890;5.982;2023-02-21T09:02:21;100634.84;;;7.89;95.10
36234;BME280;43467;50.890;5.982;2023-02-21T09:04:47;100635.47;;;7.98;94.72
36234;BME280;43467;50.890;5.982;2023-02-21T09:07:15;100641.78;;;7.92;95.23
36234;BME280;43467;50.890;5.982;2023-02-21T09:09:40;100630.97;;;8.01;95.14
36234;BME280;43467;50.890;5.982;2023-02-21T09:12:06;100640.69;;;7.99;93.93
36234;BME280;43467;50.890;5.982;2023-02-21T09:14:36;100633.34;;;8.10;93.89
36234;BME280;43467;50.890;5.982;2023-02-21T09:17:02;100635.00;;;8.14;93.51
36234;BME280;43467;50.890;5.982;2023-02-21T09:19:28;100630.75;;;8.09;93.70
36234;BME280;43467;50.890;5.982;2023-02-21T09:21:53;100627.22;;;8.10;93.42
36234;BME280;43467;50.890;5.982;2023-02-21T09:24:23;100625.59;;;8.04;94.37
36234;BME280;43467;50.890;5.982;2023-02-21T09:26:54;100627.13;;;8.13;93.45
36234;BME280;43467;50.890;5.982;2023-02-21T09:29:20;100627.09;;;8.14;93.24
36234;BME280;43467;50.890;5.982;2023-02-21T09:31:47;100621.88;;;8.11;93.21
36234;BME280;43467;50.890;5.982;2023-02-21T09:34:12;100613.19;;;8.08;92.97
36234;BME280;43467;50.890;5.982;2023-02-21T09:36:38;100625.25;;;8.16;92.61
36234;BME280;43467;50.890;5.982;2023-02-21T09:39:03;100628.72;;;8.18;93.12
36234;BME280;43467;50.890;5.982;2023-02-21T09:41:31;100623.38;;;8.20;92.72
36234;BME280;43467;50.890;5.982;2023-02-21T09:43:58;100627.59;;;7.96;93.17
36234;BME280;43467;50.890;5.982;2023-02-21T09:46:43;100619.56;;;8.01;92.98
36234;BME280;43467;50.890;5.982;2023-02-21T09:49:16;100617.66;;;8.06;92.95
36234;BME280;43467;50.890;5.982;2023-02-21T09:51:44;100618.91;;;7.92;92.55
36234;BME280;43467;50.890;5.982;2023-02-21T09:54:22;100626.28;;;7.81;93.27
36234;BME280;43467;50.890;5.982;2023-02-21T09:56:49;100620.09;;;7.82;93.19
36234;BME280;43467;50.890;5.982;2023-02-21T09:59:14;100610.41;;;7.83;93.34
36234;BME280;43467;50.890;5.982;2023-02-21T10:01:49;100612.00;;;7.88;93.62
36234;BME280;43467;50.890;5.982;2023-02-21T10:04:31;100600.78;;;7.82;94.15
36234;BME280;43467;50.890;5.982;2023-02-21T10:07:04;100603.31;;;7.85;93.84
36234;BME280;43467;50.890;5.982;2023-02-21T10:09:44;100605.78;;;7.91;93.33
36234;BME280;43467;50.890;5.982;2023-02-21T10:15:13;100593.25;;;7.68;94.42
36234;BME280;43467;50.890;5.982;2023-02-21T10:17:58;100593.81;;;7.79;94.16
36234;BME280;43467;50.890;5.982;2023-02-21T10:20:40;100599.91;;;7.81;94.92
36234;BME280;43467;50.890;5.982;2023-02-21T10:25:52;100595.97;;;8.25;92.94
36234;BME280;43467;50.890;5.982;2023-02-21T10:28:22;100597.63;;;8.28;92.98
36234;BME280;43467;50.890;5.982;2023-02-21T10:30:50;100596.94;;;8.23;91.81
36234;BME280;43467;50.890;5.982;2023-02-21T10:33:17;100604.78;;;8.24;91.89
36234;BME280;43467;50.890;5.982;2023-02-21T10:35:43;100585.66;;;8.18;91.55
36234;BME280;43467;50.890;5.982;2023-02-21T10:38:14;100591.94;;;8.14;92.02
36234;BME280;43467;50.890;5.982;2023-02-21T10:40:45;100594.97;;;8.31;92.21
36234;BME280;43467;50.890;5.982;2023-02-21T10:43:13;100597.88;;;8.20;92.32
36234;BME280;43467;50.890;5.982;2023-02-21T10:46:00;100580.50;;;8.13;91.73
36234;BME280;43467;50.890;5.982;2023-02-21T10:48:31;100586.28;;;8.26;91.61
36234;BME280;43467;50.890;5.982;2023-02-21T10:53:25;100603.19;;;8.48;91.28
36234;BME280;43467;50.890;5.982;2023-02-21T11:03:48;100595.81;;;8.59;91.16
36234;BME280;43467;50.890;5.982;2023-02-21T11:06:26;100601.88;;;8.63;90.93
36234;BME280;43467;50.890;5.982;2023-02-21T11:08:57;100597.88;;;8.50;90.69
36234;BME280;43467;50.890;5.982;2023-02-21T11:11:38;100595.09;;;8.54;91.03
36234;BME280;43467;50.890;5.982;2023-02-21T11:16:42;100584.94;;;8.68;90.67
36234;BME280;43467;50.890;5.982;2023-02-21T11:19:11;100576.72;;;8.77;89.85
36234;BME280;43467;50.890;5.982;2023-02-21T11:21:38;100580.66;;;8.66;89.83
36234;BME280;43467;50.890;5.982;2023-02-21T11:24:05;100578.44;;;8.80;89.23
36234;BME280;43467;50.890;5.982;2023-02-21T11:26:51;100569.78;;;8.75;88.89
36234;BME280;43467;50.890;5.982;2023-02-21T11:29:20;100564.16;;;8.85;88.71
36234;BME280;43467;50.890;5.982;2023-02-21T11:31:48;100558.00;;;8.85;89.43
36234;BME280;43467;50.890;5.982;2023-02-21T11:34:15;100562.09;;;8.94;88.91
36234;BME280;43467;50.890;5.982;2023-02-21T11:36:45;100558.53;;;8.96;88.73
36234;BME280;43467;50.890;5.982;2023-02-21T11:39:25;100547.78;;;9.01;88.36
36234;BME280;43467;50.890;5.982;2023-02-21T11:42:00;100542.13;;;9.11;88.58
36234;BME280;43467;50.890;5.982;2023-02-21T11:44:38;100538.41;;;8.92;87.95
36234;BME280;43467;50.890;5.982;2023-02-21T11:48:06;100545.34;;;9.21;87.97
36234;BME280;43467;50.890;5.982;2023-02-21T11:52:46;100539.22;;;9.19;87.62
36234;BME280;43467;50.890;5.982;2023-02-21T11:55:21;100540.66;;;9.29;86.76
36234;BME280;43467;50.890;5.982;2023-02-21T12:03:53;100529.41;;;9.47;85.55
36234;BME280;43467;50.890;5.982;2023-02-21T12:11:27;100517.50;;;9.36;86.91
36234;BME280;43467;50.890;5.982;2023-02-21T12:19:34;100506.06;;;9.58;85.25
36234;BME280;43467;50.890;5.982;2023-02-21T12:22:17;100509.66;;;9.57;85.42
36234;BME280;43467;50.890;5.982;2023-02-21T12:28:12;100489.88;;;9.67;85.11
36234;BME280;43467;50.890;5.982;2023-02-21T12:47:01;100466.81;;;9.94;84.27
36234;BME280;43467;50.890;5.982;2023-02-21T12:49:40;100472.00;;;9.96;83.91
36234;BME280;43467;50.890;5.982;2023-02-21T12:52:22;100465.94;;;9.94;83.36
36234;BME280;43467;50.890;5.982;2023-02-21T12:55:06;100473.78;;;9.95;83.19
36234;BME280;43467;50.890;5.982;2023-02-21T13:00:20;100466.22;;;10.08;83.31
36234;BME280;43467;50.890;5.982;2023-02-21T13:03:05;100461.16;;;10.25;83.63
36234;BME280;43467;50.890;5.982;2023-02-21T13:05:40;100466.50;;;10.23;82.82
36234;BME280;43467;50.890;5.982;2023-02-21T13:11:10;100459.34;;;10.04;84.02
36234;BME280;43467;50.890;5.982;2023-02-21T13:13:38;100457.31;;;9.89;85.05
36234;BME280;43467;50.890;5.982;2023-02-21T13:16:09;100457.69;;;10.01;84.73
36234;BME280;43467;50.890;5.982;2023-02-21T13:18:46;100457.06;;;10.18;83.93
36234;BME280;43467;50.890;5.982;2023-02-21T13:24:13;100452.66;;;10.39;82.87
36234;BME280;43467;50.890;5.982;2023-02-21T13:29:38;100437.53;;;10.62;82.30
36234;BME280;43467;50.890;5.982;2023-02-21T13:32:10;100439.19;;;10.65;81.07
36234;BME280;43467;50.890;5.982;2023-02-21T13:34:59;100425.78;;;10.48;81.60
36234;BME280;43467;50.890;5.982;2023-02-21T13:37:27;100418.38;;;10.14;83.40
36234;BME280;43467;50.890;5.982;2023-02-21T13:39:56;100413.41;;;10.06;83.46
36234;BME280;43467;50.890;5.982;2023-02-21T13:42:28;100410.16;;;10.21;83.00
36234;BME280;43467;50.890;5.982;2023-02-21T13:45:18;100418.19;;;10.40;81.83
36234;BME280;43467;50.890;5.982;2023-02-21T13:55:33;100417.59;;;10.74;81.23
36234;BME280;43467;50.890;5.982;2023-02-21T14:02:54;100415.31;;;11.05;80.04
36234;BME280;43467;50.890;5.982;2023-02-21T14:05:20;100401.56;;;10.97;79.54
36234;BME280;43467;50.890;5.982;2023-02-21T14:07:59;100395.50;;;11.14;79.48
36234;BME280;43467;50.890;5.982;2023-02-21T14:10:44;100395.09;;;11.23;78.65
36234;BME280;43467;50.890;5.982;2023-02-21T14:13:32;100393.22;;;11.25;77.95
36234;BME280;43467;50.890;5.982;2023-02-21T14:21:05;100397.34;;;11.32;77.86
36234;BME280;43467;50.890;5.982;2023-02-21T14:23:40;100398.41;;;11.28;78.30
36234;BME280;43467;50.890;5.982;2023-02-21T14:26:43;100402.03;;;11.07;77.88
36234;BME280;43467;50.890;5.982;2023-02-21T14:37:02;100371.66;;;11.51;76.71
36234;BME280;43467;50.890;5.982;2023-02-21T14:39:38;100386.22;;;11.43;76.95
36234;BME280;43467;50.890;5.982;2023-02-21T14:42:08;100389.50;;;11.29;77.66
36234;BME280;43467;50.890;5.982;2023-02-21T14:55:55;100376.19;;;11.31;78.06
36234;BME280;43467;50.890;5.982;2023-02-21T14:58:47;100377.00;;;11.33;77.94
36234;BME280;43467;50.890;5.982;2023-02-21T15:03:47;100385.72;;;11.35;77.56
36234;BME280;43467;50.890;5.982;2023-02-21T15:06:18;100370.72;;;11.15;77.49
36234;BME280;43467;50.890;5.982;2023-02-21T15:08:47;100373.84;;;11.25;77.82
36234;BME280;43467;50.890;5.982;2023-02-21T15:11:34;100375.47;;;11.27;77.62
36234;BME280;43467;50.890;5.982;2023-02-21T15:14:23;100384.44;;;11.25;77.54
36234;BME280;43467;50.890;5.982;2023-02-21T15:16:53;100383.13;;;11.14;78.05
36234;BME280;43467;50.890;5.982;2023-02-21T15:19:23;100376.38;;;11.07;78.80
36234;BME280;43467;50.890;5.982;2023-02-21T15:24:30;100377.81;;;11.14;78.82
36234;BME280;43467;50.890;5.982;2023-02-21T15:27:10;100370.38;;;11.23;77.87
36234;BME280;43467;50.890;5.982;2023-02-21T15:29:36;100368.75;;;11.20;77.97
36234;BME280;43467;50.890;5.982;2023-02-21T15:32:02;100369.25;;;11.28;78.08
36234;BME280;43467;50.890;5.982;2023-02-21T15:37:16;100368.94;;;10.77;79.33
36234;BME280;43467;50.890;5.982;2023-02-21T15:39:51;100375.97;;;10.78;79.57
36234;BME280;43467;50.890;5.982;2023-02-21T15:42:18;100367.34;;;10.72;79.40
36234;BME280;43467;50.890;5.982;2023-02-21T15:44:57;100364.84;;;10.69;79.78
36234;BME280;43467;50.890;5.982;2023-02-21T15:47:25;100363.47;;;10.41;81.07
36234;BME280;43467;50.890;5.982;2023-02-21T15:50:13;100360.66;;;10.44;81.24
36234;BME280;43467;50.890;5.982;2023-02-21T15:52:46;100347.09;;;10.31;81.48